Time;durP1;ratioP1;P1;durP2;ratioP2;P2;SDS_P1;SDS_P2;PMS_P1;PMS_P2;Temp;Humidity;BMP_temperature;BMP_pressure;BME280_temperature;BME280_humidity;BME280_pressure;Samples;Min_cycle;Max_cycle;Signal;HPM_P1;HPM_P2
2023/05/28 00:01:32;;;;;;;;;;;;;;;13.75;100.00;-18397.91;5017280;28;20289;-79
2023/05/28 00:03:57;;;;;;;;;;;;;;;13.67;100.00;-18395.84;5015337;28;20005;-78
2023/05/28 00:06:22;;;;;;;;;;;;;;;13.52;100.00;-18391.75;5014965;28;19953;-79
2023/05/28 00:08:48;;;;;;;;;;;;;;;13.50;100.00;-18391.19;5015248;28;19918;-79
2023/05/28 00:11:13;;;;;;;;;;;;;;;13.38;100.00;-18388.03;4997954;28;19929;-79
2023/05/28 00:13:38;;;;;;;;;;;;;;;13.21;100.00;-18383.50;4995454;28;19932;-79
2023/05/28 00:16:04;;;;;;;;;;;;;;;13.18;100.00;-18382.69;5013036;28;20384;-79
2023/05/28 00:18:30;;;;;;;;;;;;;;;13.10;100.00;-18380.50;5011209;28;20325;-79
2023/05/28 00:20:55;;;;;;;;;;;;;;;13.09;100.00;-18380.22;5013290;28;19996;-79
2023/05/28 00:23:20;;;;;;;;;;;;;;;13.05;100.00;-18379.13;5013658;28;20344;-79
2023/05/28 00:25:46;;;;;;;;;;;;;;;12.97;100.00;-18376.94;5012379;28;19971;-78
2023/05/28 00:28:12;;;;;;;;;;;;;;;12.94;100.00;-18376.09;5011500;28;19925;-79
2023/05/28 00:30:37;;;;;;;;;;;;;;;12.77;100.00;-18371.72;5012354;28;19922;-79
2023/05/28 00:33:02;;;;;;;;;;;;;;;12.97;100.00;-18377.06;5008840;28;19925;-78
2023/05/28 00:35:27;;;;;;;;;;;;;;;12.87;100.00;-18374.47;5012299;28;19925;-77
2023/05/28 00:37:52;;;;;;;;;;;;;;;12.92;100.00;-18375.69;5012215;28;19928;-78
2023/05/28 00:40:18;;;;;;;;;;;;;;;13.00;100.00;-18377.75;4992959;28;19917;-79
2023/05/28 00:42:46;;;;;;;;;;;;;;;13.03;100.00;-18378.72;5012557;28;19925;-79
2023/05/28 00:45:12;;;;;;;;;;;;;;;12.94;100.00;-18376.25;5011871;28;20524;-79
2023/05/28 00:47:38;;;;;;;;;;;;;;;12.93;100.00;-18375.97;5011734;28;19949;-78
2023/05/28 00:50:05;;;;;;;;;;;;;;;12.83;100.00;-18373.38;5011559;28;19924;-78
2023/05/28 00:52:31;;;;;;;;;;;;;;;12.73;100.00;-18370.63;5010488;28;19937;-79
2023/05/28 00:54:56;;;;;;;;;;;;;;;12.69;100.00;-18369.53;5011978;28;20343;-79
2023/05/28 00:57:23;;;;;;;;;;;;;;;12.83;100.00;-18373.22;5008032;28;19993;-79
2023/05/28 00:59:49;;;;;;;;;;;;;;;12.76;100.00;-18371.44;5010865;28;19917;-79
2023/05/28 01:02:15;;;;;;;;;;;;;;;12.74;100.00;-18370.75;5012651;28;19917;-79
2023/05/28 01:04:40;;;;;;;;;;;;;;;12.79;100.00;-18372.28;5010932;28;19917;-78
2023/05/28 01:07:05;;;;;;;;;;;;;;;12.82;100.00;-18373.09;5012539;28;19924;-79
2023/05/28 01:09:30;;;;;;;;;;;;;;;12.77;100.00;-18371.59;5010529;28;19944;-79
2023/05/28 01:11:56;;;;;;;;;;;;;;;12.90;100.00;-18375.00;4993105;28;19925;-79
2023/05/28 01:14:22;;;;;;;;;;;;;;;12.68;100.00;-18369.13;5012288;28;19972;-79
2023/05/28 01:16:51;;;;;;;;;;;;;;;12.53;100.00;-18365.28;5011767;28;19922;-79
2023/05/28 01:19:18;;;;;;;;;;;;;;;12.50;100.00;-18364.44;4999587;28;19922;-79
2023/05/28 01:21:44;;;;;;;;;;;;;;;12.64;100.00;-18368.28;4993698;28;19918;-79
2023/05/28 01:24:13;;;;;;;;;;;;;;;12.74;100.00;-18370.91;5008955;28;19921;-79
2023/05/28 01:26:38;;;;;;;;;;;;;;;12.68;100.00;-18369.13;5014504;28;19984;-79
2023/05/28 01:29:13;;;;;;;;;;;;;;;12.82;100.00;-18373.09;5014940;28;19918;-79
2023/05/28 01:31:38;;;;;;;;;;;;;;;13.02;100.00;-18378.31;5014047;28;19933;-79
2023/05/28 01:34:03;;;;;;;;;;;;;;;13.03;100.00;-18378.56;5010940;28;20293;-78
2023/05/28 01:36:31;;;;;;;;;;;;;;;13.16;100.00;-18382.13;4995604;28;20352;-79
2023/05/28 01:38:59;;;;;;;;;;;;;;;13.21;100.00;-18383.50;5012352;28;19921;-78
2023/05/28 01:41:25;;;;;;;;;;;;;;;13.15;100.00;-18381.88;5013928;28;19922;-78
2023/05/28 01:43:52;;;;;;;;;;;;;;;13.16;100.00;-18382.13;5015920;28;20065;-79
2023/05/28 01:46:17;;;;;;;;;;;;;;;13.25;100.00;-18384.63;5015668;28;19932;-78
2023/05/28 01:48:42;;;;;;;;;;;;;;;13.34;100.00;-18386.94;5012333;28;19917;-78
2023/05/28 01:51:08;;;;;;;;;;;;;;;13.45;100.00;-18389.81;4992847;28;20308;-78
2023/05/28 01:53:33;;;;;;;;;;;;;;;13.37;100.00;-18387.63;5013851;28;19926;-79
2023/05/28 01:55:58;;;;;;;;;;;;;;;13.46;100.00;-18390.09;5008279;28;19926;-78
2023/05/28 01:58:24;;;;;;;;;;;;;;;13.57;100.00;-18393.09;5010648;28;19965;-79
2023/05/28 02:01:05;;;;;;;;;;;;;;;13.67;100.00;-18395.84;5010979;28;19917;-79
2023/05/28 02:03:30;;;;;;;;;;;;;;;13.68;100.00;-18396.00;4988586;28;19918;-79
2023/05/28 02:05:55;;;;;;;;;;;;;;;13.46;100.00;-18390.22;4992687;28;19960;-79
2023/05/28 02:08:20;;;;;;;;;;;;;;;13.47;100.00;-18390.38;4973243;28;19925;-79
2023/05/28 02:10:46;;;;;;;;;;;;;;;13.47;100.00;-18390.50;4991878;28;19937;-78
2023/05/28 02:13:11;;;;;;;;;;;;;;;13.51;100.00;-18391.47;4992544;28;19926;-79
2023/05/28 02:15:36;;;;;;;;;;;;;;;13.52;100.00;-18391.88;4988809;28;19921;-78
2023/05/28 02:18:02;;;;;;;;;;;;;;;13.50;100.00;-18391.19;4991080;28;19924;-78
2023/05/28 02:20:27;;;;;;;;;;;;;;;13.32;100.00;-18386.41;4997659;28;19953;-78
2023/05/28 02:22:52;;;;;;;;;;;;;;;13.37;100.00;-18387.63;4998002;28;19918;-78
2023/05/28 02:25:18;;;;;;;;;;;;;;;13.35;100.00;-18387.06;4998399;28;19932;-79
2023/05/28 02:27:43;;;;;;;;;;;;;;;13.35;100.00;-18387.22;4995872;28;19926;-79
2023/05/28 02:30:10;;;;;;;;;;;;;;;13.26;100.00;-18384.88;4998504;28;19922;-79
2023/05/28 02:32:36;;;;;;;;;;;;;;;13.32;100.00;-18386.41;4998130;28;19928;-79
2023/05/28 02:35:01;;;;;;;;;;;;;;;13.24;100.00;-18384.19;4999541;28;19921;-79
2023/05/28 02:37:26;;;;;;;;;;;;;;;13.25;100.00;-18384.63;4999463;28;19917;-79
2023/05/28 02:39:52;;;;;;;;;;;;;;;13.36;100.00;-18387.50;4997944;28;19935;-79
2023/05/28 02:42:17;;;;;;;;;;;;;;;13.29;100.00;-18385.72;4998298;28;20341;-78
2023/05/28 02:44:42;;;;;;;;;;;;;;;13.24;100.00;-18384.19;4996129;28;19925;-78
2023/05/28 02:47:07;;;;;;;;;;;;;;;13.25;100.00;-18384.47;4995186;28;19926;-79
2023/05/28 02:49:33;;;;;;;;;;;;;;;13.25;100.00;-18384.47;4996049;28;19925;-79
2023/05/28 02:51:58;;;;;;;;;;;;;;;13.20;100.00;-18383.09;4993753;28;19922;-79
2023/05/28 02:54:23;;;;;;;;;;;;;;;13.09;100.00;-18380.34;4996152;28;19922;-78
2023/05/28 02:56:48;;;;;;;;;;;;;;;13.12;100.00;-18381.03;4998544;28;20312;-79
2023/05/28 02:59:14;;;;;;;;;;;;;;;12.93;100.00;-18375.84;4997771;28;19929;-79
2023/05/28 03:01:39;;;;;;;;;;;;;;;12.94;100.00;-18376.09;5017875;28;19976;-78
2023/05/28 03:04:04;;;;;;;;;;;;;;;12.91;100.00;-18375.28;5019790;28;19917;-79
2023/05/28 03:06:30;;;;;;;;;;;;;;;12.91;100.00;-18375.41;5018364;28;19925;-79
2023/05/28 03:08:55;;;;;;;;;;;;;;;12.91;100.00;-18375.28;5017002;28;19932;-79
2023/05/28 03:11:21;;;;;;;;;;;;;;;13.08;100.00;-18379.94;5017883;28;19922;-79
2023/05/28 03:13:46;;;;;;;;;;;;;;;13.01;100.00;-18378.03;5017315;28;19929;-79
2023/05/28 03:16:11;;;;;;;;;;;;;;;12.84;100.00;-18373.50;4998595;28;19925;-78
2023/05/28 03:18:36;;;;;;;;;;;;;;;12.84;100.00;-18373.63;5003959;28;19925;-79
2023/05/28 03:21:02;;;;;;;;;;;;;;;12.91;100.00;-18375.28;5016247;28;19918;-79
2023/05/28 03:23:27;;;;;;;;;;;;;;;12.83;100.00;-18373.22;5016858;28;19929;-78
2023/05/28 03:25:52;;;;;;;;;;;;;;;13.01;100.00;-18378.16;5014134;28;19917;-79
2023/05/28 03:28:17;;;;;;;;;;;;;;;13.17;100.00;-18382.41;5016357;28;19917;-79
2023/05/28 03:30:43;;;;;;;;;;;;;;;13.14;100.00;-18381.47;5016252;28;19917;-79
2023/05/28 03:33:08;;;;;;;;;;;;;;;13.17;100.00;-18382.41;5015976;28;19929;-79
2023/05/28 03:35:33;;;;;;;;;;;;;;;13.07;100.00;-18379.69;5016441;28;19932;-79
2023/05/28 03:37:58;;;;;;;;;;;;;;;13.06;100.00;-18379.41;5017640;28;19976;-79
2023/05/28 03:40:24;;;;;;;;;;;;;;;13.23;100.00;-18384.06;5014950;28;19924;-78
2023/05/28 03:42:49;;;;;;;;;;;;;;;13.15;100.00;-18381.72;5016351;28;19918;-78
2023/05/28 03:45:15;;;;;;;;;;;;;;;13.12;100.00;-18380.91;5014701;28;19918;-78
2023/05/28 03:47:40;;;;;;;;;;;;;;;12.90;100.00;-18375.16;5014336;28;19925;-79
2023/05/28 03:50:06;;;;;;;;;;;;;;;12.99;100.00;-18377.63;5013916;28;20576;-79
2023/05/28 03:52:31;;;;;;;;;;;;;;;13.08;100.00;-18379.94;5010917;28;19922;-78
2023/05/28 03:54:56;;;;;;;;;;;;;;;13.02;100.00;-18378.31;5017066;28;19975;-79
2023/05/28 03:57:22;;;;;;;;;;;;;;;13.12;100.00;-18381.03;5013627;28;19923;-79
2023/05/28 03:59:47;;;;;;;;;;;;;;;13.26;100.00;-18384.88;5010529;28;19937;-79
2023/05/28 04:02:12;;;;;;;;;;;;;;;13.21;100.00;-18383.50;5012627;28;19921;-79
2023/05/28 04:04:37;;;;;;;;;;;;;;;13.41;100.00;-18388.72;5013117;28;19918;-79
2023/05/28 04:07:03;;;;;;;;;;;;;;;12.98;100.00;-18377.22;5013111;28;19917;-78
2023/05/28 04:09:28;;;;;;;;;;;;;;;13.15;100.00;-18381.72;5013081;28;19949;-78
2023/05/28 04:11:53;;;;;;;;;;;;;;;13.16;100.00;-18382.13;5015204;28;19944;-78
2023/05/28 04:14:20;;;;;;;;;;;;;;;13.17;100.00;-18382.28;5013595;28;20328;-79
2023/05/28 04:16:45;;;;;;;;;;;;;;;13.08;100.00;-18379.94;4995374;28;19926;-78
2023/05/28 04:19:10;;;;;;;;;;;;;;;13.23;100.00;-18384.06;5011172;28;19925;-79
2023/05/28 04:21:36;;;;;;;;;;;;;;;13.16;100.00;-18382.13;5011644;28;20127;-79
2023/05/28 04:24:02;;;;;;;;;;;;;;;13.31;100.00;-18386.25;5014136;28;19922;-79
2023/05/28 04:26:27;;;;;;;;;;;;;;;13.38;100.00;-18387.91;5011059;28;19924;-79
2023/05/28 04:28:54;;;;;;;;;;;;;;;13.17;100.00;-18382.41;5012907;28;19969;-79
2023/05/28 04:31:19;;;;;;;;;;;;;;;13.26;100.00;-18384.88;5013264;28;19975;-79
2023/05/28 04:33:47;;;;;;;;;;;;;;;13.28;100.00;-18385.44;5013020;28;19964;-79
2023/05/28 04:36:13;;;;;;;;;;;;;;;13.24;100.00;-18384.34;5013407;28;19917;-79
2023/05/28 04:38:39;;;;;;;;;;;;;;;13.28;100.00;-18385.28;5011071;28;19940;-79
2023/05/28 04:41:05;;;;;;;;;;;;;;;13.34;100.00;-18386.81;5011658;28;19921;-78
2023/05/28 04:43:30;;;;;;;;;;;;;;;13.40;100.00;-18388.44;5011140;28;19917;-79
2023/05/28 04:45:58;;;;;;;;;;;;;;;13.46;100.00;-18390.22;5010608;28;19953;-79
2023/05/28 04:48:23;;;;;;;;;;;;;;;13.56;100.00;-18392.69;5010315;28;20016;-79
2023/05/28 04:50:50;;;;;;;;;;;;;;;13.65;100.00;-18395.31;5013241;28;19987;-79
2023/05/28 04:53:15;;;;;;;;;;;;;;;13.69;100.00;-18396.41;5013465;28;19922;-79
2023/05/28 04:55:41;;;;;;;;;;;;;;;13.73;100.00;-18397.34;5014822;28;19917;-80
2023/05/28 04:58:07;;;;;;;;;;;;;;;13.63;100.00;-18394.75;5011199;28;19926;-79
2023/05/28 05:00:34;;;;;;;;;;;;;;;13.77;100.00;-18398.59;5012858;28;19929;-79
2023/05/28 05:03:00;;;;;;;;;;;;;;;13.90;100.00;-18401.88;5014602;28;19929;-79
2023/05/28 05:05:25;;;;;;;;;;;;;;;14.06;100.00;-18406.25;5013200;28;19917;-79
2023/05/28 05:07:51;;;;;;;;;;;;;;;13.97;100.00;-18403.94;5015918;28;19921;-79
2023/05/28 05:10:17;;;;;;;;;;;;;;;13.97;100.00;-18403.78;5011451;28;19980;-79
2023/05/28 05:12:42;;;;;;;;;;;;;;;13.92;100.00;-18402.56;5014658;28;19972;-80
2023/05/28 05:15:08;;;;;;;;;;;;;;;13.95;100.00;-18403.25;5015748;28;19932;-79
2023/05/28 05:17:33;;;;;;;;;;;;;;;14.27;100.00;-18411.72;5015301;28;19917;-79
2023/05/28 05:20:01;;;;;;;;;;;;;;;14.40;100.00;-18415.28;5015529;28;20598;-78
2023/05/28 05:22:26;;;;;;;;;;;;;;;14.66;100.00;-18422.28;5014506;28;19917;-79
2023/05/28 05:24:52;;;;;;;;;;;;;;;14.85;100.00;-18427.34;5015149;28;20285;-79
2023/05/28 05:27:17;;;;;;;;;;;;;;;14.98;100.00;-18430.91;5013443;28;19918;-79
2023/05/28 05:29:42;;;;;;;;;;;;;;;15.26;100.00;-18438.28;5012026;28;19917;-79
2023/05/28 05:32:08;;;;;;;;;;;;;;;15.39;100.00;-18441.72;4994991;28;19972;-79
2023/05/28 05:34:33;;;;;;;;;;;;;;;15.38;100.00;-18441.56;5012791;28;19922;-79
2023/05/28 05:36:59;;;;;;;;;;;;;;;15.45;100.00;-18443.50;5013798;28;19921;-80
2023/05/28 05:39:25;;;;;;;;;;;;;;;15.62;100.00;-18447.88;5012282;28;20292;-78
2023/05/28 05:41:50;;;;;;;;;;;;;;;15.76;100.00;-18451.84;5011795;28;19925;-79
2023/05/28 05:44:15;;;;;;;;;;;;;;;15.81;100.00;-18453.06;5011702;28;19929;-79
2023/05/28 05:46:41;;;;;;;;;;;;;;;15.98;100.00;-18457.56;5012503;28;19921;-79
2023/05/28 05:49:06;;;;;;;;;;;;;;;16.06;100.00;-18459.63;5011010;28;19931;-80
2023/05/28 05:51:32;;;;;;;;;;;;;;;16.02;100.00;-18458.66;5011766;28;19953;-79
2023/05/28 05:53:57;;;;;;;;;;;;;;;16.05;100.00;-18459.34;5016410;28;19932;-79
2023/05/28 05:56:22;;;;;;;;;;;;;;;16.21;100.00;-18463.72;5013957;28;20539;-78
2023/05/28 05:58:48;;;;;;;;;;;;;;;16.19;100.00;-18463.31;5010108;28;19929;-79
2023/05/28 06:01:16;;;;;;;;;;;;;;;16.56;100.00;-18473.03;5008640;28;19921;-80
2023/05/28 06:03:41;;;;;;;;;;;;;;;16.81;100.00;-18479.72;5011509;28;19971;-79
2023/05/28 06:06:06;;;;;;;;;;;;;;;16.93;100.00;-18483.00;5007142;28;20421;-79
2023/05/28 06:08:32;;;;;;;;;;;;;;;17.09;100.00;-18487.22;5011837;28;20396;-79
2023/05/28 06:10:57;;;;;;;;;;;;;;;17.07;100.00;-18486.69;5010413;28;19967;-80
2023/05/28 06:13:23;;;;;;;;;;;;;;;17.05;100.00;-18486.28;4996095;28;19917;-79
2023/05/28 06:15:48;;;;;;;;;;;;;;;17.11;100.00;-18487.78;5012176;28;19941;-80
2023/05/28 06:18:13;;;;;;;;;;;;;;;17.24;100.00;-18491.31;5009590;28;19928;-78
2023/05/28 06:20:39;;;;;;;;;;;;;;;17.51;100.00;-18498.56;5010901;28;19930;-80
2023/05/28 06:23:05;;;;;;;;;;;;;;;17.62;100.00;-18501.44;5013842;28;19917;-80
2023/05/28 06:25:30;;;;;;;;;;;;;;;17.61;100.00;-18501.16;5011849;28;19940;-79
2023/05/28 06:27:56;;;;;;;;;;;;;;;17.41;100.00;-18495.69;5012171;28;19944;-79
2023/05/28 06:30:22;;;;;;;;;;;;;;;17.40;100.00;-18495.56;5011283;28;19924;-79
2023/05/28 06:32:48;;;;;;;;;;;;;;;17.34;100.00;-18494.06;5012468;28;19929;-79
2023/05/28 06:35:13;;;;;;;;;;;;;;;17.36;100.00;-18494.47;5012358;28;19924;-80
2023/05/28 06:37:38;;;;;;;;;;;;;;;17.45;100.00;-18496.91;4994153;28;19929;-80
2023/05/28 06:40:06;;;;;;;;;;;;;;;17.54;100.00;-18499.25;5015486;28;19944;-79
2023/05/28 06:42:31;;;;;;;;;;;;;;;17.56;100.00;-18499.78;5015835;28;19931;-79
2023/05/28 06:44:58;;;;;;;;;;;;;;;17.74;100.00;-18504.69;5012419;28;19929;-79
2023/05/28 06:47:23;;;;;;;;;;;;;;;17.68;100.00;-18503.06;5010637;28;19929;-78
2023/05/28 06:49:48;;;;;;;;;;;;;;;17.81;100.00;-18506.63;5015473;28;19918;-80
2023/05/28 06:52:14;;;;;;;;;;;;;;;17.92;100.00;-18509.47;5013028;28;19936;-80
2023/05/28 06:54:39;;;;;;;;;;;;;;;18.06;100.00;-18513.03;5018000;28;19918;-80
2023/05/28 06:57:04;;;;;;;;;;;;;;;17.94;100.00;-18510.03;5005228;28;19918;-80
2023/05/28 06:59:30;;;;;;;;;;;;;;;18.03;100.00;-18512.47;5016683;28;20539;-80
2023/05/28 07:01:55;;;;;;;;;;;;;;;18.17;100.00;-18516.16;5018240;28;19921;-79
2023/05/28 07:04:21;;;;;;;;;;;;;;;18.33;100.00;-18520.41;4998908;28;19975;-80
2023/05/28 07:06:46;;;;;;;;;;;;;;;18.57;100.00;-18526.81;5017715;28;19918;-79
2023/05/28 07:09:12;;;;;;;;;;;;;;;18.65;100.00;-18528.97;5016038;28;20016;-79
2023/05/28 07:11:37;;;;;;;;;;;;;;;18.76;100.00;-18531.72;5018582;28;19925;-79
2023/05/28 07:14:03;;;;;;;;;;;;;;;18.90;100.00;-18535.53;5018592;28;19941;-79
2023/05/28 07:16:28;;;;;;;;;;;;;;;19.00;100.00;-18538.13;5015124;28;20553;-80
2023/05/28 07:18:53;;;;;;;;;;;;;;;19.32;100.00;-18546.72;5012960;28;19925;-79
2023/05/28 07:21:18;;;;;;;;;;;;;;;19.34;100.00;-18547.38;5014880;28;19975;-79
2023/05/28 07:23:43;;;;;;;;;;;;;;;19.38;100.00;-18548.34;5008006;28;19929;-79
2023/05/28 07:26:09;;;;;;;;;;;;;;;19.51;100.00;-18551.88;5006359;28;19918;-80
2023/05/28 07:28:34;;;;;;;;;;;;;;;19.52;100.00;-18552.16;5001025;28;19936;-80
2023/05/28 07:31:00;;;;;;;;;;;;;;;19.63;100.00;-18555.00;5007738;28;19928;-80
2023/05/28 07:33:25;;;;;;;;;;;;;;;19.98;100.00;-18564.41;5006129;28;20016;-80
2023/05/28 07:35:50;;;;;;;;;;;;;;;20.15;100.00;-18568.78;5002159;28;20488;-79
2023/05/28 07:38:15;;;;;;;;;;;;;;;20.26;100.00;-18571.91;4998101;28;19926;-80
2023/05/28 07:40:41;;;;;;;;;;;;;;;20.41;100.00;-18575.84;5014075;28;19918;-81
2023/05/28 07:43:06;;;;;;;;;;;;;;;20.63;95.42;-18581.69;5008940;28;19937;-80
2023/05/28 07:45:31;;;;;;;;;;;;;;;20.41;100.00;-18575.84;5016512;28;19998;-80
2023/05/28 07:47:57;;;;;;;;;;;;;;;20.48;98.36;-18577.75;4997819;28;20235;-79
2023/05/28 07:50:22;;;;;;;;;;;;;;;20.60;97.12;-18580.75;4988547;28;20293;-79
2023/05/28 07:52:47;;;;;;;;;;;;;;;20.83;92.09;-18586.88;5013580;28;19968;-81
2023/05/28 07:55:12;;;;;;;;;;;;;;;20.77;87.71;-18585.25;5016786;28;19924;-80
2023/05/28 07:57:38;;;;;;;;;;;;;;;20.67;86.77;-18582.78;5015679;28;19926;-80
2023/05/28 08:00:06;;;;;;;;;;;;;;;21.00;84.27;-18591.50;5012759;28;20289;-80
2023/05/28 08:02:32;;;;;;;;;;;;;;;21.24;89.20;-18597.88;5014629;28;19953;-81
2023/05/28 08:04:57;;;;;;;;;;;;;;;21.39;83.53;-18601.84;5014694;28;19933;-81
2023/05/28 08:07:22;;;;;;;;;;;;;;;21.43;77.71;-18602.78;5012182;28;19960;-81
2023/05/28 08:09:47;;;;;;;;;;;;;;;21.66;79.12;-18609.03;5015213;28;19921;-80
2023/05/28 08:12:12;;;;;;;;;;;;;;;21.76;74.87;-18611.63;5014701;28;19921;-80
2023/05/28 08:14:38;;;;;;;;;;;;;;;21.69;71.98;-18609.72;4983125;28;19944;-80
2023/05/28 08:17:03;;;;;;;;;;;;;;;21.92;71.27;-18615.81;5014434;28;19918;-80
2023/05/28 08:19:28;;;;;;;;;;;;;;;21.71;69.35;-18610.41;4993774;28;19994;-80
2023/05/28 08:21:54;;;;;;;;;;;;;;;21.84;70.14;-18613.94;5013760;28;19921;-80
2023/05/28 08:24:20;;;;;;;;;;;;;;;21.82;70.54;-18613.38;5007095;28;20519;-80
2023/05/28 08:26:46;;;;;;;;;;;;;;;22.01;66.88;-18618.28;5012129;28;19929;-81
2023/05/28 08:29:11;;;;;;;;;;;;;;;22.02;73.24;-18618.53;5008254;28;19929;-80
2023/05/28 08:31:36;;;;;;;;;;;;;;;22.08;68.27;-18620.31;4995486;28;19929;-81
2023/05/28 08:34:01;;;;;;;;;;;;;;;22.11;73.15;-18621.00;5009923;28;19981;-81
2023/05/28 08:36:27;;;;;;;;;;;;;;;22.20;81.06;-18623.44;5009458;28;19993;-82
2023/05/28 08:38:52;;;;;;;;;;;;;;;22.30;73.87;-18626.16;4996822;28;19968;-82
2023/05/28 08:41:18;;;;;;;;;;;;;;;22.23;79.83;-18624.13;5008810;28;19973;-82
2023/05/28 08:43:43;;;;;;;;;;;;;;;22.40;74.63;-18628.59;5022953;28;19937;-82
2023/05/28 08:46:09;;;;;;;;;;;;;;;22.56;71.69;-18632.94;5014962;28;19918;-81
2023/05/28 08:48:34;;;;;;;;;;;;;;;22.52;72.03;-18631.84;5013394;28;19921;-82
2023/05/28 08:51:00;;;;;;;;;;;;;;;22.67;75.80;-18635.78;5009742;28;19985;-82
2023/05/28 08:53:30;;;;;;;;;;;;;;;22.76;71.31;-18638.25;5008814;28;19937;-82
2023/05/28 08:55:55;;;;;;;;;;;;;;;22.32;73.38;-18626.56;5009177;28;20001;-81
2023/05/28 08:58:21;;;;;;;;;;;;;;;22.43;68.88;-18629.41;5003929;28;20015;-81
2023/05/28 09:00:49;;;;;;;;;;;;;;;22.34;69.26;-18627.09;5007665;28;19917;-82
2023/05/28 09:03:15;;;;;;;;;;;;;;;22.41;73.41;-18629.00;4989899;28;19922;-82
2023/05/28 09:05:40;;;;;;;;;;;;;;;22.30;72.97;-18626.16;4985132;28;19928;-82
2023/05/28 09:08:10;;;;;;;;;;;;;;;22.33;68.76;-18626.69;4985120;28;19925;-81
2023/05/28 09:10:36;;;;;;;;;;;;;;;22.55;70.66;-18632.66;5009028;28;19917;-82
2023/05/28 09:13:01;;;;;;;;;;;;;;;22.66;67.59;-18635.53;5011645;28;19926;-82
2023/05/28 09:15:27;;;;;;;;;;;;;;;22.65;64.24;-18635.38;5010098;28;19922;-81
2023/05/28 09:17:53;;;;;;;;;;;;;;;22.59;60.49;-18633.75;4988801;28;19979;-81
2023/05/28 09:20:19;;;;;;;;;;;;;;;22.60;61.99;-18633.91;5008676;28;19952;-81
2023/05/28 09:22:44;;;;;;;;;;;;;;;22.70;59.99;-18636.59;5010116;28;19925;-82
2023/05/28 09:25:10;;;;;;;;;;;;;;;22.89;62.09;-18641.78;5010579;28;19921;-81
2023/05/28 09:27:36;;;;;;;;;;;;;;;22.97;60.46;-18643.81;5010716;28;19921;-81
2023/05/28 09:30:02;;;;;;;;;;;;;;;23.09;57.55;-18647.06;4991620;28;19948;-81
2023/05/28 09:32:28;;;;;;;;;;;;;;;22.98;56.65;-18644.06;4988796;28;20804;-81
2023/05/28 09:34:55;;;;;;;;;;;;;;;23.00;58.29;-18644.63;4989936;28;19949;-81
2023/05/28 09:37:21;;;;;;;;;;;;;;;22.97;62.40;-18643.81;4986151;28;19918;-83
2023/05/28 09:39:46;;;;;;;;;;;;;;;23.13;63.23;-18648.00;4965747;28;19932;-83
2023/05/28 09:42:14;;;;;;;;;;;;;;;22.96;62.38;-18643.53;4981657;28;19926;-82
2023/05/28 09:44:40;;;;;;;;;;;;;;;23.02;55.31;-18645.16;4985236;28;19917;-82
2023/05/28 09:47:15;;;;;;;;;;;;;;;23.08;58.86;-18646.78;4979479;28;20012;-83
2023/05/28 09:49:47;;;;;;;;;;;;;;;23.31;58.40;-18652.75;5001312;28;19922;-83
2023/05/28 09:52:22;;;;;;;;;;;;;;;23.30;51.78;-18652.63;5004359;28;20267;-83
2023/05/28 09:54:55;;;;;;;;;;;;;;;23.35;52.37;-18653.97;5003701;28;19932;-83
2023/05/28 09:57:27;;;;;;;;;;;;;;;23.43;50.98;-18656.16;4999589;28;19917;-83
2023/05/28 09:59:56;;;;;;;;;;;;;;;23.45;51.67;-18656.56;4993383;28;19949;-83
2023/05/28 10:02:47;;;;;;;;;;;;;;;23.52;53.00;-18658.47;4994093;28;19917;-83
2023/05/28 10:05:13;;;;;;;;;;;;;;;23.79;53.64;-18665.50;4981823;28;20392;-83
2023/05/28 10:07:40;;;;;;;;;;;;;;;23.86;52.39;-18667.41;4987661;28;20010;-83
2023/05/28 10:10:06;;;;;;;;;;;;;;;23.65;50.30;-18662.00;4982330;28;19923;-83
2023/05/28 10:12:32;;;;;;;;;;;;;;;23.62;50.25;-18661.03;4976557;28;20005;-83
2023/05/28 10:14:59;;;;;;;;;;;;;;;23.67;51.87;-18662.25;4981734;28;20008;-83
2023/05/28 10:17:24;;;;;;;;;;;;;;;23.83;48.75;-18666.72;4998908;28;19944;-83
2023/05/28 10:19:50;;;;;;;;;;;;;;;23.76;50.13;-18664.69;5000982;28;19925;-83
2023/05/28 10:22:16;;;;;;;;;;;;;;;23.88;51.08;-18667.97;5011625;28;19995;-84
2023/05/28 10:24:41;;;;;;;;;;;;;;;24.00;49.13;-18671.06;4983363;28;19945;-83
2023/05/28 10:27:07;;;;;;;;;;;;;;;24.06;51.16;-18672.69;4999681;28;19960;-82
2023/05/28 10:29:44;;;;;;;;;;;;;;;24.22;52.51;-18676.91;4994124;28;19922;-83
2023/05/28 10:32:09;;;;;;;;;;;;;;;24.30;48.96;-18679.06;5011535;28;20299;-81
2023/05/28 10:34:36;;;;;;;;;;;;;;;24.28;47.93;-18678.66;5012414;28;19921;-84
2023/05/28 10:37:06;;;;;;;;;;;;;;;24.08;49.04;-18673.25;4992547;28;19930;-83
2023/05/28 10:39:38;;;;;;;;;;;;;;;24.31;48.35;-18679.34;5005704;28;20186;-84
2023/05/28 10:42:05;;;;;;;;;;;;;;;24.57;48.75;-18686.13;5016695;28;19917;-83
2023/05/28 10:44:50;;;;;;;;;;;;;;;24.60;47.35;-18687.06;5014613;28;19929;-84
2023/05/28 10:47:16;;;;;;;;;;;;;;;24.72;46.61;-18690.31;5012811;28;19955;-83
2023/05/28 10:49:58;;;;;;;;;;;;;;;24.52;45.69;-18685.03;4996328;28;20259;-83
2023/05/28 10:52:25;;;;;;;;;;;;;;;24.86;44.93;-18693.84;5013431;28;19921;-84
2023/05/28 10:54:52;;;;;;;;;;;;;;;24.93;44.01;-18695.72;5011984;28;20056;-82
2023/05/28 10:57:20;;;;;;;;;;;;;;;24.83;43.97;-18693.03;5008466;28;20572;-82
2023/05/28 10:59:50;;;;;;;;;;;;;;;24.27;45.99;-18678.38;5012443;28;19925;-82
2023/05/28 11:02:22;;;;;;;;;;;;;;;24.40;46.27;-18681.78;4997018;28;19917;-83
2023/05/28 11:04:51;;;;;;;;;;;;;;;24.56;46.88;-18685.97;5013152;28;19929;-83
2023/05/28 11:07:17;;;;;;;;;;;;;;;24.83;44.22;-18693.16;4995316;28;20324;-83
2023/05/28 11:09:46;;;;;;;;;;;;;;;24.71;45.96;-18690.03;5012029;28;19952;-82
2023/05/28 11:12:12;;;;;;;;;;;;;;;24.73;45.06;-18690.44;4996963;28;19929;-84
2023/05/28 11:14:37;;;;;;;;;;;;;;;24.99;46.40;-18697.34;5012040;28;19946;-83
2023/05/28 11:17:12;;;;;;;;;;;;;;;25.26;45.25;-18704.53;5013257;28;20067;-82
2023/05/28 11:19:42;;;;;;;;;;;;;;;25.34;43.56;-18706.56;4963736;28;19963;-82
2023/05/28 11:22:07;;;;;;;;;;;;;;;24.95;42.08;-18696.28;5010910;28;19929;-82
2023/05/28 11:24:47;;;;;;;;;;;;;;;24.93;42.19;-18695.88;5007721;28;19928;-83
2023/05/28 11:27:13;;;;;;;;;;;;;;;25.02;42.99;-18698.16;5013321;28;19917;-82
2023/05/28 11:29:39;;;;;;;;;;;;;;;24.89;42.17;-18694.66;5007897;28;20049;-83
2023/05/28 11:32:04;;;;;;;;;;;;;;;24.78;43.25;-18691.81;4992589;28;19925;-83
2023/05/28 11:34:30;;;;;;;;;;;;;;;24.96;44.32;-18696.69;5012581;28;19929;-83
2023/05/28 11:36:55;;;;;;;;;;;;;;;25.43;44.91;-18709.13;4991948;28;19949;-82
2023/05/28 11:39:20;;;;;;;;;;;;;;;25.60;44.13;-18713.59;4992627;28;20029;-83
2023/05/28 11:41:45;;;;;;;;;;;;;;;25.59;45.18;-18713.19;4991213;28;20622;-82
2023/05/28 11:44:23;;;;;;;;;;;;;;;25.81;43.67;-18719.00;5007510;28;19989;-82
2023/05/28 11:46:55;;;;;;;;;;;;;;;25.98;43.87;-18723.47;4991984;28;19926;-83
2023/05/28 11:49:21;;;;;;;;;;;;;;;25.88;43.05;-18721.03;4990361;28;19922;-82
2023/05/28 11:51:46;;;;;;;;;;;;;;;25.90;41.54;-18721.44;4992522;28;19984;-82
2023/05/28 11:54:11;;;;;;;;;;;;;;;25.86;43.45;-18720.50;4993895;28;19925;-82
2023/05/28 11:56:36;;;;;;;;;;;;;;;25.98;41.67;-18723.63;4990437;28;19924;-83
2023/05/28 11:59:02;;;;;;;;;;;;;;;26.01;41.72;-18724.44;4993939;28;19924;-83
2023/05/28 12:01:31;;;;;;;;;;;;;;;26.02;40.78;-18724.56;4985202;28;19922;-82
2023/05/28 12:04:05;;;;;;;;;;;;;;;25.97;41.99;-18723.22;5005781;28;19972;-83
2023/05/28 12:06:32;;;;;;;;;;;;;;;25.83;41.83;-18719.69;4995542;28;20354;-83
2023/05/28 12:09:01;;;;;;;;;;;;;;;25.88;41.25;-18720.91;4984507;28;20269;-83
2023/05/28 12:11:27;;;;;;;;;;;;;;;25.89;41.50;-18721.19;4980523;28;20329;-84
2023/05/28 12:13:52;;;;;;;;;;;;;;;25.95;40.82;-18722.66;5008487;28;19924;-81
2023/05/28 12:16:17;;;;;;;;;;;;;;;26.16;40.31;-18728.22;5001917;28;19921;-81
2023/05/28 12:18:44;;;;;;;;;;;;;;;26.40;39.81;-18734.56;5000939;28;21642;-82
2023/05/28 12:21:18;;;;;;;;;;;;;;;26.49;40.90;-18737.00;4993349;28;19921;-83
2023/05/28 12:23:43;;;;;;;;;;;;;;;26.27;41.18;-18731.31;4972742;28;19929;-82
2023/05/28 12:26:10;;;;;;;;;;;;;;;26.45;38.74;-18735.91;5002834;28;19983;-80